This is the latest recevied weather packets stored in our database for station/object N5DGC. If no packets are shown the sender has not sent any weather packets the latest 10 day(s).
| Time | Temp. | Humidity | Pressure | Rain* | Wind** | Luminosity | Snow |
|---|---|---|---|---|---|---|---|
| 1777759562 | 21.11° C | 23% | 1239.7 hPa | 0 mm | - | 684 W/m² | - |
| 1777759258 | 21.11° C | 24% | 1239.6 hPa | 0 mm | - | 699 W/m² | - |
| 1777758955 | 21.67° C | 23% | 1239.7 hPa | 0 mm | - | 719 W/m² | - |
| 1777758652 | 22.22° C | 24% | 1239.8 hPa | 0 mm | - | 724 W/m² | - |
| 1777758349 | 21.67° C | 23% | 1240 hPa | 0 mm | - | 742 W/m² | - |
| 1777758047 | 21.67° C | 23% | 1240.2 hPa | 0 mm | - | 758 W/m² | - |
| 1777757743 | 21.11° C | 25% | 1240.3 hPa | 0 mm | - | 765 W/m² | - |
| 1777757441 | 21.11° C | 24% | 1240.3 hPa | 0 mm | - | 780 W/m² | - |
| 1777757140 | 20° C | 25% | 1240.5 hPa | 0 mm | - | 799 W/m² | - |
| 1777756837 | 20° C | 25% | 1240.7 hPa | 0 mm | - | 805 W/m² | - |
| 1777756532 | 21.11° C | 24% | 1240.9 hPa | 0 mm | - | 824 W/m² | - |
| 1777756230 | 21.67° C | 25% | 1240.9 hPa | 0 mm | - | 846 W/m² | - |
| 1777755927 | 21.67° C | 25% | 1240.9 hPa | 0 mm | - | 863 W/m² | - |
| 1777755624 | 21.11° C | 26% | 1241 hPa | 0 mm | - | 877 W/m² | - |
| 1777755321 | 20.56° C | 26% | 1241.1 hPa | 0 mm | - | 894 W/m² | - |
| 1777755018 | 20° C | 26% | 1241.1 hPa | 0 mm | - | 905 W/m² | - |
| 1777754715 | 20° C | 26% | 1241 hPa | 0 mm | - | 823 W/m² | - |
| 1777754413 | 20° C | 27% | 1241.1 hPa | 0 mm | - | 875 W/m² | - |
| 1777754109 | 19.44° C | 28% | 1241.5 hPa | 0 mm | - | 955 W/m² | - |
| 1777753806 | 18.89° C | 29% | 1241.5 hPa | 0 mm | - | 934 W/m² | - |
| 1777753502 | 18.89° C | 29% | 1241.5 hPa | 0 mm | - | 912 W/m² | - |
| 1777753201 | 18.89° C | 31% | 1241.6 hPa | 0 mm | - | 803 W/m² | - |
| 1777752896 | 17.78° C | 31% | 1241.8 hPa | 0 mm | - | 786 W/m² | - |
| 1777752593 | 18.89° C | 31% | 1241.7 hPa | 0 mm | - | 666 W/m² | - |
| 1777752289 | 17.78° C | 33% | 1241.8 hPa | 0 mm | - | 639 W/m² | - |
* Rain latest hour (hover to see other rain measurements)
** Current wind speed in m/s (hover to see current wind gust speed)